createdAt,value
2017-08-18T00:00:20.303Z,17.86
2017-08-18T00:01:14.345Z,17.84
2017-08-18T00:02:15.427Z,17.88
2017-08-18T00:03:15.427Z,17.90
2017-08-18T00:04:15.433Z,17.91
2017-08-18T00:05:10.488Z,17.94
2017-08-18T00:06:04.529Z,17.93
2017-08-18T00:07:05.546Z,17.88
2017-08-18T00:08:05.717Z,17.90
2017-08-18T00:09:00.619Z,17.90
2017-08-18T00:10:00.710Z,17.90
2017-08-18T00:10:54.688Z,17.87
2017-08-18T00:11:54.841Z,17.84
2017-08-18T00:12:49.736Z,17.94
2017-08-18T00:13:37.867Z,17.94
2017-08-18T00:14:31.910Z,17.90
2017-08-18T00:15:26.935Z,17.90
2017-08-18T00:16:26.987Z,17.92
2017-08-18T00:17:21.981Z,17.90
2017-08-18T00:18:22.023Z,17.88
2017-08-18T00:19:22.085Z,17.84
2017-08-18T00:20:22.163Z,17.83
2017-08-18T00:21:16.173Z,17.80
2017-08-18T00:22:16.264Z,17.78
2017-08-18T00:23:11.207Z,17.84
2017-08-18T00:24:06.237Z,17.88
2017-08-18T00:25:07.360Z,17.89
2017-08-18T00:26:07.287Z,17.88
2017-08-18T00:27:07.439Z,17.81
2017-08-18T00:28:02.436Z,17.77
2017-08-18T00:28:56.453Z,17.72
2017-08-18T00:29:57.516Z,17.78
2017-08-18T00:30:51.588Z,17.76
2017-08-18T00:31:46.665Z,17.77
2017-08-18T00:32:46.603Z,17.82
2017-08-18T00:33:41.698Z,17.81
2017-08-18T00:34:36.735Z,17.80
2017-08-18T00:35:37.778Z,17.81
2017-08-18T00:36:37.767Z,17.82
2017-08-18T00:37:26.794Z,17.78
2017-08-18T00:38:14.891Z,17.76
2017-08-18T00:39:03.921Z,17.71
2017-08-18T00:39:52.950Z,17.68
2017-08-18T00:40:42.064Z,17.66
2017-08-18T00:41:29.999Z,17.64
2017-08-18T00:42:30.070Z,17.68
2017-08-18T00:43:36.097Z,17.70
2017-08-18T00:44:31.077Z,17.67
2017-08-18T00:45:25.137Z,17.66
2017-08-18T00:46:25.207Z,17.65
2017-08-18T00:47:25.201Z,17.61
2017-08-18T00:48:20.250Z,17.60
2017-08-18T00:49:14.267Z,17.59
2017-08-18T00:50:14.376Z,17.56
2017-08-18T00:51:09.407Z,17.59
2017-08-18T00:52:15.445Z,17.61
2017-08-18T00:53:09.314Z,17.70
2017-08-18T00:54:04.241Z,17.70
2017-08-18T00:54:52.524Z,17.67
2017-08-18T00:55:40.391Z,17.66
2017-08-18T00:56:35.613Z,17.66
2017-08-18T00:57:29.690Z,17.61
2017-08-18T00:58:18.650Z,17.59
2017-08-18T00:59:06.821Z,17.56
2017-08-18T00:59:54.768Z,17.56
2017-08-18T01:00:49.745Z,17.57
2017-08-18T01:01:55.862Z,17.58
2017-08-18T01:02:55.827Z,17.62
2017-08-18T01:03:49.823Z,17.64
2017-08-18T01:04:49.917Z,17.65
2017-08-18T01:05:44.942Z,17.62
2017-08-18T01:06:39.977Z,17.64
2017-08-18T01:07:40.061Z,17.62
2017-08-18T01:08:35.019Z,17.72
2017-08-18T01:09:29.140Z,17.72
2017-08-18T01:10:23.189Z,17.72
2017-08-18T01:11:12.155Z,17.72
2017-08-18T01:12:00.270Z,17.71
2017-08-18T01:12:48.272Z,17.72
2017-08-18T01:13:37.340Z,17.72
2017-08-18T01:14:25.379Z,17.73
2017-08-18T01:15:13.440Z,17.71
2017-08-18T01:16:02.647Z,17.75
2017-08-18T01:16:51.537Z,17.72
2017-08-18T01:17:45.545Z,17.78
2017-08-18T01:18:39.568Z,17.78
2017-08-18T01:19:28.729Z,17.77
2017-08-18T01:20:17.680Z,17.75
2017-08-18T01:21:06.704Z,17.72
2017-08-18T01:21:54.735Z,17.68
2017-08-18T01:22:54.820Z,17.71
2017-08-18T01:23:48.889Z,17.69
2017-08-18T01:24:42.861Z,17.64
2017-08-18T01:25:31.880Z,17.56
2017-08-18T01:26:20.043Z,17.55
2017-08-18T01:27:14.058Z,17.60
2017-08-18T01:28:02.030Z,17.58
2017-08-18T01:28:51.124Z,17.52
2017-08-18T01:29:39.113Z,17.51
2017-08-18T01:30:27.190Z,17.48
2017-08-18T01:31:16.253Z,17.47
2017-08-18T01:32:11.272Z,17.52
2017-08-18T01:33:00.312Z,17.52
2017-08-18T01:33:55.371Z,17.53
2017-08-18T01:34:43.458Z,17.59
2017-08-18T01:35:32.417Z,17.58
2017-08-18T01:36:20.504Z,17.60
2017-08-18T01:37:08.560Z,17.57
2017-08-18T01:37:56.602Z,17.60
2017-08-18T01:38:44.525Z,17.57
2017-08-18T01:39:32.609Z,17.58
2017-08-18T01:40:20.799Z,17.58
2017-08-18T01:41:08.758Z,17.59
2017-08-18T01:41:56.866Z,17.56
2017-08-18T01:42:45.798Z,17.54
2017-08-18T01:43:33.896Z,17.50
2017-08-18T01:44:21.963Z,17.50
2017-08-18T01:45:11.025Z,17.48
2017-08-18T01:45:58.940Z,17.49
2017-08-18T01:46:46.980Z,17.48
2017-08-18T01:47:36.086Z,17.46
2017-08-18T01:48:23.981Z,17.42
2017-08-18T01:49:12.099Z,17.38
2017-08-18T01:50:01.023Z,17.34
2017-08-18T01:50:49.093Z,17.30
2017-08-18T01:51:37.125Z,17.27
2017-08-18T01:52:26.535Z,17.24
2017-08-18T01:53:14.472Z,17.24
2017-08-18T01:54:03.231Z,17.29
2017-08-18T01:54:51.326Z,17.29
2017-08-18T01:55:45.332Z,17.29
2017-08-18T01:56:40.432Z,17.27
2017-08-18T01:57:28.426Z,17.22
2017-08-18T01:58:16.514Z,17.20
2017-08-18T01:59:05.579Z,17.19
2017-08-18T01:59:53.605Z,17.14
2017-08-18T02:00:41.571Z,17.11
2017-08-18T02:01:30.658Z,17.09
2017-08-18T02:02:18.707Z,17.06
2017-08-18T02:03:06.751Z,17.05
2017-08-18T02:03:55.821Z,17.04
2017-08-18T02:04:43.975Z,17.02
2017-08-18T02:05:31.972Z,17.02
2017-08-18T02:06:19.940Z,17.04
2017-08-18T02:07:09.102Z,17.02
2017-08-18T02:07:57.017Z,17.00
2017-08-18T02:08:46.251Z,16.99
2017-08-18T02:09:34.066Z,17.02
2017-08-18T02:10:22.264Z,17.04
2017-08-18T02:11:11.246Z,17.02
2017-08-18T02:11:59.447Z,17.00
2017-08-18T02:12:47.588Z,16.97
2017-08-18T02:13:36.364Z,16.97
2017-08-18T02:14:24.470Z,16.94
2017-08-18T02:15:12.368Z,16.90
2017-08-18T02:16:01.545Z,16.86
2017-08-18T02:16:49.570Z,16.85
2017-08-18T02:17:37.504Z,16.82
2017-08-18T02:18:26.605Z,16.86
2017-08-18T02:19:14.643Z,16.84
2017-08-18T02:20:02.668Z,16.88
2017-08-18T02:20:51.818Z,16.85
2017-08-18T02:21:39.815Z,16.90
2017-08-18T02:22:34.306Z,16.89
2017-08-18T02:23:22.817Z,16.95
2017-08-18T02:24:18.042Z,17.05
2017-08-18T02:25:11.936Z,17.05
2017-08-18T02:26:06.049Z,17.02
2017-08-18T02:26:55.092Z,16.92
2017-08-18T02:27:55.091Z,16.93
2017-08-18T02:28:50.294Z,16.89
2017-08-18T02:29:50.124Z,16.91
2017-08-18T02:30:44.189Z,16.88
2017-08-18T02:31:45.237Z,16.84
2017-08-18T02:32:45.235Z,16.84
2017-08-18T02:33:40.344Z,16.81
2017-08-18T02:34:40.311Z,16.78
2017-08-18T02:35:34.356Z,16.78
2017-08-18T02:36:34.355Z,16.75
2017-08-18T02:37:29.724Z,16.71
2017-08-18T02:38:24.451Z,16.70
2017-08-18T02:39:24.497Z,16.64
2017-08-18T02:40:19.547Z,16.64
2017-08-18T02:41:14.585Z,16.60
2017-08-18T02:42:15.889Z,16.58
2017-08-18T02:43:15.679Z,16.64
2017-08-18T02:44:15.597Z,16.67
2017-08-18T02:45:10.721Z,16.67
2017-08-18T02:46:04.743Z,16.62
2017-08-18T02:47:04.932Z,16.56
2017-08-18T02:47:59.871Z,16.58
2017-08-18T02:48:59.826Z,16.58
2017-08-18T02:49:53.942Z,16.58
2017-08-18T02:50:54.955Z,16.60
2017-08-18T02:51:56.085Z,16.56
2017-08-18T02:52:51.219Z,16.58
2017-08-18T02:53:45.057Z,16.61
2017-08-18T02:54:46.216Z,16.57
2017-08-18T02:55:47.144Z,16.63
2017-08-18T02:56:42.230Z,16.60
2017-08-18T02:57:36.483Z,16.61
2017-08-18T02:58:36.482Z,16.61
2017-08-18T02:59:36.269Z,16.61
2017-08-18T03:00:31.529Z,16.60
2017-08-18T03:01:25.354Z,16.60
2017-08-18T03:02:25.464Z,16.56
2017-08-18T03:03:20.634Z,16.61
2017-08-18T03:04:20.471Z,16.69
2017-08-18T03:05:20.406Z,16.71
2017-08-18T03:06:20.534Z,16.74
2017-08-18T03:07:14.813Z,16.74
2017-08-18T03:08:14.651Z,16.76
2017-08-18T03:09:09.611Z,16.78
2017-08-18T03:10:04.701Z,16.78
2017-08-18T03:11:05.759Z,16.78
2017-08-18T03:12:06.672Z,16.74
2017-08-18T03:13:01.755Z,16.74
2017-08-18T03:14:02.105Z,16.72
2017-08-18T03:15:01.903Z,16.70
2017-08-18T03:16:01.834Z,16.70
2017-08-18T03:16:56.940Z,16.67
2017-08-18T03:17:56.993Z,16.67
2017-08-18T03:18:57.277Z,16.66
2017-08-18T03:19:57.043Z,16.66
2017-08-18T03:20:51.134Z,16.71
2017-08-18T03:21:51.398Z,16.72
2017-08-18T03:22:46.168Z,16.72
2017-08-18T03:23:41.293Z,16.73
2017-08-18T03:24:41.156Z,16.76
2017-08-18T03:25:36.326Z,16.77
2017-08-18T03:26:31.223Z,16.79
2017-08-18T03:27:31.488Z,16.76
2017-08-18T03:28:26.438Z,16.83
2017-08-18T03:29:21.346Z,16.85
2017-08-18T03:30:22.425Z,16.85
2017-08-18T03:31:22.537Z,16.85
2017-08-18T03:32:22.548Z,16.84
2017-08-18T03:33:17.578Z,16.86
2017-08-18T03:34:11.613Z,16.89
2017-08-18T03:35:11.544Z,16.90
2017-08-18T03:36:06.653Z,16.90
2017-08-18T03:37:06.937Z,16.90
2017-08-18T03:38:00.736Z,16.95
2017-08-18T03:39:01.987Z,17.00
2017-08-18T03:40:02.769Z,16.95
2017-08-18T03:40:57.777Z,16.92
2017-08-18T03:41:52.162Z,16.94
2017-08-18T03:42:52.069Z,17.00
2017-08-18T03:43:45.905Z,17.06
2017-08-18T03:44:34.935Z,17.04
2017-08-18T03:45:29.019Z,17.04
2017-08-18T03:46:24.050Z,17.04
2017-08-18T03:47:24.098Z,17.03
2017-08-18T03:48:13.587Z,17.03
2017-08-18T03:49:07.183Z,17.04
2017-08-18T03:49:55.191Z,17.02
2017-08-18T03:50:43.255Z,16.98
2017-08-18T03:51:37.329Z,17.00
2017-08-18T03:52:26.339Z,16.96
2017-08-18T03:53:14.437Z,16.99
2017-08-18T03:54:14.459Z,16.98
2017-08-18T03:55:08.464Z,16.94
2017-08-18T03:56:02.567Z,16.95
2017-08-18T03:56:56.918Z,16.95
2017-08-18T03:57:51.618Z,16.92
2017-08-18T03:58:45.611Z,16.92
2017-08-18T03:59:45.666Z,16.91
2017-08-18T04:00:40.706Z,16.90
2017-08-18T04:01:40.706Z,16.91
2017-08-18T04:02:34.779Z,16.88
2017-08-18T04:03:22.792Z,16.87
2017-08-18T04:04:12.229Z,16.89
2017-08-18T04:04:59.939Z,16.89
2017-08-18T04:05:47.972Z,16.88
2017-08-18T04:06:37.041Z,16.90
2017-08-18T04:07:24.981Z,16.92
2017-08-18T04:08:13.048Z,16.94
2017-08-18T04:09:14.316Z,17.00
2017-08-18T04:10:03.118Z,17.03
2017-08-18T04:10:51.495Z,17.04
2017-08-18T04:11:51.526Z,17.10
2017-08-18T04:12:46.264Z,17.09
2017-08-18T04:13:41.345Z,17.08
2017-08-18T04:14:41.490Z,17.09
2017-08-18T04:15:30.467Z,17.10
2017-08-18T04:16:24.463Z,17.13
2017-08-18T04:17:12.515Z,17.15
2017-08-18T04:18:01.520Z,17.16
2017-08-18T04:18:49.594Z,17.17
2017-08-18T04:19:37.626Z,17.22
2017-08-18T04:20:33.538Z,17.24
2017-08-18T04:21:20.715Z,17.24
2017-08-18T04:22:08.797Z,17.18
2017-08-18T04:22:56.763Z,17.26
2017-08-18T04:23:44.845Z,17.24
2017-08-18T04:24:39.880Z,17.26
2017-08-18T04:25:34.082Z,17.18
2017-08-18T04:26:28.886Z,17.24
2017-08-18T04:27:23.177Z,17.24
2017-08-18T04:28:17.211Z,17.19
2017-08-18T04:29:06.110Z,17.22
2017-08-18T04:29:54.201Z,17.23
2017-08-18T04:30:42.241Z,17.20
2017-08-18T04:31:31.370Z,17.17
2017-08-18T04:32:25.342Z,17.21
2017-08-18T04:33:13.442Z,17.22
2017-08-18T04:34:02.547Z,17.25
2017-08-18T04:34:50.579Z,17.21
2017-08-18T04:35:38.586Z,17.23
2017-08-18T04:36:32.595Z,17.32
2017-08-18T04:37:26.531Z,17.26
2017-08-18T04:38:26.639Z,17.33
2017-08-18T04:39:21.639Z,17.24
2017-08-18T04:40:16.887Z,17.28
2017-08-18T04:41:16.824Z,17.24
2017-08-18T04:42:10.843Z,17.32
2017-08-18T04:42:59.972Z,17.36
2017-08-18T04:43:53.953Z,17.27
2017-08-18T04:44:47.965Z,17.31
2017-08-18T04:45:36.003Z,17.28
2017-08-18T04:46:24.101Z,17.26
2017-08-18T04:47:18.243Z,17.28
2017-08-18T04:48:07.221Z,17.28
2017-08-18T04:49:01.216Z,17.29
2017-08-18T04:49:50.322Z,17.28
2017-08-18T04:50:38.140Z,17.34
2017-08-18T04:51:27.222Z,17.32
2017-08-18T04:52:22.273Z,17.36
2017-08-18T04:53:23.541Z,17.28
2017-08-18T04:54:24.365Z,17.30
2017-08-18T04:55:18.414Z,17.34
2017-08-18T04:56:12.479Z,17.32
2017-08-18T04:57:07.501Z,17.30
2017-08-18T04:58:01.531Z,17.34
2017-08-18T04:58:50.698Z,17.37
2017-08-18T04:59:50.561Z,17.35
2017-08-18T05:00:50.570Z,17.41
2017-08-18T05:01:50.587Z,17.40
2017-08-18T05:02:50.720Z,17.38
2017-08-18T05:03:50.728Z,17.40
2017-08-18T05:04:50.779Z,17.38
2017-08-18T05:05:50.816Z,17.41
2017-08-18T05:06:50.846Z,17.44
2017-08-18T05:07:51.003Z,17.34
2017-08-18T05:08:51.144Z,17.37
2017-08-18T05:09:39.984Z,17.37
2017-08-18T05:10:40.138Z,17.49
2017-08-18T05:11:34.047Z,17.44
2017-08-18T05:12:34.218Z,17.44
2017-08-18T05:13:28.084Z,17.45
2017-08-18T05:14:22.391Z,17.40
2017-08-18T05:15:22.474Z,17.45
2017-08-18T05:16:22.300Z,17.44
2017-08-18T05:17:17.354Z,17.44
2017-08-18T05:18:17.429Z,17.46
2017-08-18T05:19:17.536Z,17.46
2017-08-18T05:20:17.408Z,17.40
2017-08-18T05:21:06.452Z,17.45
2017-08-18T05:21:55.825Z,17.44
2017-08-18T05:22:43.503Z,17.51
2017-08-18T05:23:32.558Z,17.48
2017-08-18T05:24:27.659Z,17.40
2017-08-18T05:25:21.738Z,17.50
2017-08-18T05:26:16.663Z,17.43
2017-08-18T05:27:17.721Z,17.45
2017-08-18T05:28:06.744Z,17.47
2017-08-18T05:28:55.043Z,17.53
2017-08-18T05:29:43.843Z,17.50
2017-08-18T05:30:38.904Z,17.52
2017-08-18T05:31:38.967Z,17.56
2017-08-18T05:32:33.992Z,17.58
2017-08-18T05:33:28.050Z,17.57
2017-08-18T05:34:28.077Z,17.55
2017-08-18T05:35:16.349Z,17.57
2017-08-18T05:36:05.345Z,17.59
2017-08-18T05:37:00.367Z,17.66
2017-08-18T05:37:54.378Z,17.55
2017-08-18T05:38:48.458Z,17.59
2017-08-18T05:39:48.346Z,17.60
2017-08-18T05:40:43.528Z,17.61
2017-08-18T05:41:31.632Z,17.66
2017-08-18T05:42:26.584Z,17.68
2017-08-18T05:43:27.893Z,17.69
2017-08-18T05:44:27.566Z,17.69
2017-08-18T05:45:33.565Z,17.79
2017-08-18T05:46:28.572Z,17.80
2017-08-18T05:47:22.639Z,17.74
2017-08-18T05:48:23.686Z,17.77
2017-08-18T05:49:18.717Z,17.76
2017-08-18T05:50:18.776Z,17.78
2017-08-18T05:51:18.771Z,17.78
2017-08-18T05:52:12.797Z,17.86
2017-08-18T05:53:12.854Z,17.74
2017-08-18T05:54:06.882Z,17.79
2017-08-18T05:54:55.935Z,17.74
2017-08-18T05:55:44.153Z,17.76
2017-08-18T05:56:45.169Z,17.75
2017-08-18T05:57:33.254Z,17.76
2017-08-18T05:58:33.210Z,17.73
2017-08-18T05:59:28.215Z,17.70
2017-08-18T06:00:28.372Z,17.72
2017-08-18T06:01:28.478Z,17.68
2017-08-18T06:02:28.454Z,17.74
2017-08-18T06:03:28.293Z,17.74
2017-08-18T06:04:28.301Z,17.78
2017-08-18T06:05:28.377Z,17.78
2017-08-18T06:06:28.416Z,17.74
2017-08-18T06:07:28.500Z,17.78
2017-08-18T06:08:28.493Z,17.75
2017-08-18T06:09:28.836Z,17.72
2017-08-18T06:10:28.623Z,17.75
2017-08-18T06:11:28.679Z,17.76
2017-08-18T06:12:28.724Z,17.70
2017-08-18T06:13:28.624Z,17.75
2017-08-18T06:14:28.737Z,17.73
2017-08-18T06:15:28.985Z,17.74
2017-08-18T06:16:28.772Z,17.82
2017-08-18T06:17:28.870Z,17.71
2017-08-18T06:18:28.853Z,17.73
2017-08-18T06:19:28.887Z,17.75
2017-08-18T06:20:28.939Z,17.77
2017-08-18T06:21:28.930Z,17.74
2017-08-18T06:22:18.098Z,17.75
2017-08-18T06:23:06.030Z,17.80
2017-08-18T06:24:06.174Z,17.76
2017-08-18T06:25:01.252Z,17.71
2017-08-18T06:25:56.141Z,17.77
2017-08-18T06:26:50.282Z,17.79
2017-08-18T06:27:44.339Z,17.78
2017-08-18T06:28:38.518Z,17.76
2017-08-18T06:29:32.609Z,17.76
2017-08-18T06:30:26.575Z,17.69
2017-08-18T06:31:27.668Z,17.76
2017-08-18T06:32:27.447Z,17.70
2017-08-18T06:33:15.521Z,17.73
2017-08-18T06:34:10.531Z,17.73
2017-08-18T06:35:10.596Z,17.72
2017-08-18T06:36:05.627Z,17.71
2017-08-18T06:37:05.646Z,17.78
2017-08-18T06:38:00.746Z,17.80
2017-08-18T06:38:55.753Z,17.78
2017-08-18T06:39:49.801Z,17.78
2017-08-18T06:40:49.864Z,17.74
2017-08-18T06:41:43.959Z,17.72
2017-08-18T06:42:44.966Z,17.75
2017-08-18T06:43:46.118Z,17.76
2017-08-18T06:44:45.976Z,17.73
2017-08-18T06:45:46.116Z,17.72
2017-08-18T06:46:34.108Z,17.64
2017-08-18T06:47:23.172Z,17.70
2017-08-18T06:48:11.140Z,17.66
2017-08-18T06:49:12.481Z,17.62
2017-08-18T06:50:06.295Z,17.64
2017-08-18T06:51:06.295Z,17.69
2017-08-18T06:52:00.605Z,17.68
2017-08-18T06:52:55.349Z,17.65
2017-08-18T06:53:43.462Z,17.72
2017-08-18T06:54:32.500Z,17.72
2017-08-18T06:55:21.558Z,17.68
2017-08-18T06:56:21.569Z,17.66
2017-08-18T06:57:21.625Z,17.69
2017-08-18T06:58:21.615Z,17.72
2017-08-18T06:59:09.634Z,17.68
2017-08-18T07:00:09.666Z,17.73
2017-08-18T07:01:09.743Z,17.68
2017-08-18T07:02:09.726Z,17.77
2017-08-18T07:03:09.846Z,17.80
2017-08-18T07:04:09.914Z,17.84
2017-08-18T07:05:04.076Z,17.88
2017-08-18T07:06:05.131Z,17.85
2017-08-18T07:06:53.318Z,17.88
2017-08-18T07:07:53.259Z,17.85
2017-08-18T07:08:47.239Z,17.78
2017-08-18T07:09:36.358Z,17.84
2017-08-18T07:10:31.358Z,17.83
2017-08-18T07:11:19.426Z,17.80
2017-08-18T07:12:07.514Z,17.88
2017-08-18T07:12:55.513Z,17.93
2017-08-18T07:13:55.665Z,17.99
2017-08-18T07:14:49.602Z,18.03
2017-08-18T07:15:44.653Z,18.08
2017-08-18T07:16:44.718Z,18.01
2017-08-18T07:17:38.825Z,18.04
2017-08-18T07:18:39.836Z,18.09
2017-08-18T07:19:28.906Z,18.14
2017-08-18T07:20:22.941Z,18.17
2017-08-18T07:21:17.914Z,18.17
2017-08-18T07:22:13.059Z,18.20
2017-08-18T07:23:14.028Z,18.10
2017-08-18T07:24:09.142Z,18.09
2017-08-18T07:25:04.130Z,18.03
2017-08-18T07:25:58.177Z,18.04
2017-08-18T07:26:46.233Z,18.01
2017-08-18T07:27:46.213Z,18.06
2017-08-18T07:28:40.269Z,18.04
2017-08-18T07:29:40.443Z,18.06
2017-08-18T07:30:34.320Z,18.07
2017-08-18T07:31:34.441Z,18.02
2017-08-18T07:32:28.477Z,18.08
2017-08-18T07:33:28.442Z,18.20
2017-08-18T07:34:22.484Z,18.28
2017-08-18T07:35:17.617Z,18.30
2017-08-18T07:36:17.651Z,18.49
2017-08-18T07:37:17.675Z,18.54
2017-08-18T07:38:12.667Z,18.55
2017-08-18T07:39:07.807Z,18.72
2017-08-18T07:40:01.829Z,18.85
2017-08-18T07:40:56.856Z,18.90
2017-08-18T07:41:51.839Z,18.92
2017-08-18T07:42:52.953Z,19.04
2017-08-18T07:43:40.973Z,19.18
2017-08-18T07:44:41.108Z,19.13
2017-08-18T07:45:35.022Z,19.29
2017-08-18T07:46:35.056Z,19.38
2017-08-18T07:47:30.134Z,19.36
2017-08-18T07:48:24.206Z,19.44
2017-08-18T07:49:24.155Z,19.57
2017-08-18T07:50:13.327Z,19.56
2017-08-18T07:51:02.299Z,19.75
2017-08-18T07:51:56.394Z,19.87
2017-08-18T07:52:45.462Z,19.96
2017-08-18T07:53:40.460Z,19.96
2017-08-18T07:54:35.478Z,20.05
2017-08-18T07:55:23.541Z,20.13
2017-08-18T07:56:11.657Z,20.24
2017-08-18T07:57:01.020Z,20.20
2017-08-18T07:57:55.724Z,20.30
2017-08-18T07:58:49.784Z,20.32
2017-08-18T07:59:44.785Z,20.38
2017-08-18T08:00:39.843Z,20.34
2017-08-18T08:01:33.848Z,20.30
2017-08-18T08:02:22.965Z,20.28
2017-08-18T08:03:17.066Z,20.25
2017-08-18T08:04:11.986Z,20.19
2017-08-18T08:05:07.148Z,20.14
2017-08-18T08:05:56.100Z,20.08
2017-08-18T08:06:51.191Z,20.10
2017-08-18T08:07:40.386Z,20.08
2017-08-18T08:08:28.277Z,20.04
2017-08-18T08:09:16.326Z,20.04
2017-08-18T08:10:04.344Z,19.98
2017-08-18T08:10:59.405Z,19.98
2017-08-18T08:11:53.485Z,19.90
2017-08-18T08:12:47.515Z,19.74
2017-08-18T08:13:36.544Z,19.78
2017-08-18T08:14:24.632Z,19.71
2017-08-18T08:15:18.664Z,19.74
2017-08-18T08:16:06.694Z,19.82
2017-08-18T08:17:01.020Z,19.78
2017-08-18T08:17:55.076Z,19.72
2017-08-18T08:18:42.824Z,19.76
2017-08-18T08:19:42.898Z,19.83
2017-08-18T08:20:37.931Z,19.76
2017-08-18T08:21:32.958Z,19.84
2017-08-18T08:22:27.022Z,19.90
2017-08-18T08:23:27.359Z,19.98
2017-08-18T08:24:22.138Z,19.94
2017-08-18T08:25:17.168Z,19.98
2017-08-18T08:26:17.217Z,19.89
2017-08-18T08:27:06.290Z,19.92
2017-08-18T08:27:55.268Z,19.87
2017-08-18T08:28:50.629Z,19.78
2017-08-18T08:29:39.498Z,19.81
2017-08-18T08:30:28.433Z,19.82
2017-08-18T08:31:17.533Z,19.90
2017-08-18T08:32:11.475Z,19.94
2017-08-18T08:32:59.597Z,20.01
2017-08-18T08:33:48.715Z,20.07
2017-08-18T08:34:37.724Z,19.97
2017-08-18T08:35:26.777Z,20.05
2017-08-18T08:36:15.846Z,20.04
2017-08-18T08:37:03.822Z,20.06
2017-08-18T08:37:58.870Z,20.06
2017-08-18T08:38:52.943Z,20.10
2017-08-18T08:39:47.971Z,20.06
2017-08-18T08:40:37.022Z,20.10
2017-08-18T08:41:38.119Z,20.04
2017-08-18T08:42:33.115Z,20.14
2017-08-18T08:43:33.130Z,20.12
2017-08-18T08:44:33.190Z,20.02
2017-08-18T08:45:27.276Z,20.05
2017-08-18T08:46:22.290Z,20.03
2017-08-18T08:47:17.263Z,20.16
2017-08-18T08:48:11.403Z,20.18
2017-08-18T08:49:05.480Z,20.06
2017-08-18T08:50:00.505Z,20.16
2017-08-18T08:50:55.483Z,20.26
2017-08-18T08:51:44.628Z,20.31
2017-08-18T08:52:38.677Z,20.36
2017-08-18T08:53:38.607Z,20.51
2017-08-18T08:54:26.743Z,20.56
2017-08-18T08:55:14.811Z,20.53
2017-08-18T08:56:14.783Z,20.19
2017-08-18T08:57:09.787Z,19.90
2017-08-18T08:57:57.896Z,19.93
2017-08-18T08:58:59.008Z,19.92
2017-08-18T08:59:48.057Z,20.02
2017-08-18T09:00:42.047Z,20.07
2017-08-18T09:01:30.063Z,20.08
2017-08-18T09:02:25.097Z,19.98
2017-08-18T09:03:25.218Z,19.79
2017-08-18T09:04:19.242Z,19.76
2017-08-18T09:05:19.368Z,19.68
2017-08-18T09:06:08.330Z,19.88
2017-08-18T09:07:03.370Z,20.19
2017-08-18T09:08:03.387Z,20.32
2017-08-18T09:08:52.535Z,20.28
2017-08-18T09:09:46.588Z,20.15
2017-08-18T09:10:40.594Z,19.76
2017-08-18T09:11:34.687Z,19.37
2017-08-18T09:12:29.767Z,19.99
2017-08-18T09:13:17.766Z,20.24
2017-08-18T09:14:11.843Z,19.89
2017-08-18T09:15:00.851Z,20.16
2017-08-18T09:15:49.990Z,19.55
2017-08-18T09:16:50.079Z,19.53
2017-08-18T09:17:49.967Z,19.40
2017-08-18T09:18:38.012Z,19.06
2017-08-18T09:19:32.122Z,19.24
2017-08-18T09:20:20.252Z,18.66
2017-08-18T09:21:15.211Z,19.12
2017-08-18T09:22:10.264Z,19.36
2017-08-18T09:23:10.360Z,19.39
2017-08-18T09:24:04.340Z,19.57
2017-08-18T09:24:58.451Z,19.78
2017-08-18T09:25:52.462Z,19.87
2017-08-18T09:26:41.520Z,19.61
2017-08-18T09:27:35.663Z,19.11
2017-08-18T09:28:30.633Z,19.28
2017-08-18T09:29:19.630Z,19.19
2017-08-18T09:30:13.771Z,18.97
2017-08-18T09:31:07.780Z,19.12
2017-08-18T09:32:03.056Z,19.00
2017-08-18T09:32:57.287Z,19.31
2017-08-18T09:33:50.935Z,19.69
2017-08-18T09:34:39.020Z,19.69
2017-08-18T09:35:28.073Z,19.58
2017-08-18T09:36:17.073Z,19.32
2017-08-18T09:37:06.166Z,19.10
2017-08-18T09:37:55.178Z,18.93
2017-08-18T09:38:49.266Z,18.90
2017-08-18T09:39:43.375Z,18.96
2017-08-18T09:40:37.350Z,18.68
2017-08-18T09:41:31.465Z,19.01
2017-08-18T09:42:25.497Z,19.03
2017-08-18T09:43:31.445Z,19.10
2017-08-18T09:44:20.628Z,18.86
2017-08-18T09:45:09.713Z,18.78
2017-08-18T09:46:04.709Z,18.76
2017-08-18T09:47:04.833Z,18.74
2017-08-18T09:47:58.794Z,18.88
2017-08-18T09:48:58.835Z,18.50
2017-08-18T09:49:52.940Z,18.29
2017-08-18T09:50:40.997Z,18.26
2017-08-18T09:51:35.002Z,18.31
2017-08-18T09:52:24.044Z,18.70
2017-08-18T09:53:18.130Z,19.04
2017-08-18T09:54:07.259Z,18.78
2017-08-18T09:55:01.232Z,18.37
2017-08-18T09:55:56.320Z,18.34
2017-08-18T09:56:50.300Z,18.22
2017-08-18T09:57:45.405Z,18.34
2017-08-18T09:58:45.401Z,18.04
2017-08-18T09:59:39.536Z,18.22
2017-08-18T10:00:27.550Z,18.39
2017-08-18T10:01:15.674Z,18.46
2017-08-18T10:02:04.750Z,18.79
2017-08-18T10:03:05.734Z,18.20
2017-08-18T10:03:54.813Z,18.10
2017-08-18T10:04:48.853Z,18.25
2017-08-18T10:05:42.898Z,18.50
2017-08-18T10:06:32.311Z,18.55
2017-08-18T10:07:21.058Z,18.49
2017-08-18T10:08:10.100Z,18.28
2017-08-18T10:08:59.116Z,18.36
2017-08-18T10:09:48.189Z,18.48
2017-08-18T10:10:37.208Z,18.39
2017-08-18T10:11:43.497Z,18.46
2017-08-18T10:12:38.301Z,18.51
2017-08-18T10:13:32.405Z,18.48
2017-08-18T10:14:26.412Z,18.74
2017-08-18T10:15:15.428Z,18.83
2017-08-18T10:16:09.549Z,18.44
2017-08-18T10:17:10.639Z,18.14
2017-08-18T10:18:10.600Z,18.17
2017-08-18T10:19:05.735Z,18.35
2017-08-18T10:20:00.779Z,18.40
2017-08-18T10:21:00.797Z,18.24
2017-08-18T10:21:48.772Z,18.32
2017-08-18T10:22:48.961Z,18.61
2017-08-18T10:23:42.899Z,18.73
2017-08-18T10:24:42.967Z,18.15
2017-08-18T10:25:37.974Z,18.19
2017-08-18T10:26:38.027Z,18.54
2017-08-18T10:27:38.145Z,18.62
2017-08-18T10:28:32.219Z,18.55
2017-08-18T10:29:20.296Z,18.96
2017-08-18T10:30:14.252Z,18.43
2017-08-18T10:31:02.267Z,18.62
2017-08-18T10:31:56.437Z,19.03
2017-08-18T10:32:51.416Z,19.13
2017-08-18T10:33:52.481Z,18.89
2017-08-18T10:34:52.505Z,18.89
2017-08-18T10:35:47.490Z,18.89
2017-08-18T10:36:41.640Z,19.25
2017-08-18T10:37:41.627Z,19.27
2017-08-18T10:38:36.763Z,18.98
2017-08-18T10:39:31.809Z,18.96
2017-08-18T10:40:25.796Z,18.54
2017-08-18T10:41:25.842Z,18.94
2017-08-18T10:42:25.880Z,19.10
2017-08-18T10:43:20.939Z,18.52
2017-08-18T10:44:09.996Z,18.81
2017-08-18T10:44:59.353Z,18.59
2017-08-18T10:45:54.111Z,19.06
2017-08-18T10:46:48.080Z,18.70
2017-08-18T10:47:48.164Z,18.62
2017-08-18T10:48:42.204Z,18.76
2017-08-18T10:49:30.327Z,18.81
2017-08-18T10:50:24.664Z,18.70
2017-08-18T10:51:13.381Z,18.70
2017-08-18T10:52:07.440Z,19.13
2017-08-18T10:52:56.491Z,19.41
2017-08-18T10:53:50.526Z,19.28
2017-08-18T10:54:44.540Z,19.08
2017-08-18T10:55:34.000Z,18.93
2017-08-18T10:56:28.730Z,18.85
2017-08-18T10:57:22.773Z,18.69
2017-08-18T10:58:22.821Z,18.24
2017-08-18T10:59:16.829Z,18.12
2017-08-18T11:00:11.852Z,18.56
2017-08-18T11:01:12.236Z,18.48
2017-08-18T11:02:06.147Z,18.44
2017-08-18T11:03:01.002Z,18.13
2017-08-18T11:03:55.151Z,18.42
2017-08-18T11:04:49.112Z,18.52
2017-08-18T11:05:49.175Z,18.85
2017-08-18T11:06:38.251Z,18.59
2017-08-18T11:07:32.258Z,18.38
2017-08-18T11:08:32.307Z,18.72
2017-08-18T11:09:26.331Z,19.01
2017-08-18T11:10:21.438Z,19.26
2017-08-18T11:11:22.428Z,19.60
2017-08-18T11:12:16.610Z,19.41
2017-08-18T11:13:16.529Z,19.57
2017-08-18T11:14:11.577Z,19.48
2017-08-18T11:15:06.654Z,19.16
2017-08-18T11:16:00.607Z,19.26
2017-08-18T11:16:49.773Z,19.29
2017-08-18T11:17:43.858Z,19.68
2017-08-18T11:18:37.844Z,19.82
2017-08-18T11:19:37.822Z,19.71
2017-08-18T11:20:32.903Z,20.17
2017-08-18T11:21:33.011Z,20.29
2017-08-18T11:22:27.002Z,20.32
2017-08-18T11:23:28.065Z,20.12
2017-08-18T11:24:22.010Z,20.13
2017-08-18T11:25:16.222Z,19.99
2017-08-18T11:26:17.158Z,19.78
2017-08-18T11:27:06.390Z,19.82
2017-08-18T11:28:06.287Z,19.89
2017-08-18T11:29:00.696Z,20.04
2017-08-18T11:30:00.368Z,19.90
2017-08-18T11:30:55.457Z,20.13
2017-08-18T11:31:50.488Z,20.36
2017-08-18T11:32:44.493Z,20.24
2017-08-18T11:33:33.626Z,20.28
2017-08-18T11:34:22.574Z,20.32
2017-08-18T11:35:16.714Z,20.04
2017-08-18T11:36:05.656Z,20.17
2017-08-18T11:37:05.835Z,20.36
2017-08-18T11:37:59.845Z,20.42
2017-08-18T11:38:48.870Z,20.54